Time;durP1;ratioP1;P1;durP2;ratioP2;P2;SDS_P1;SDS_P2;PMS_P1;PMS_P2;Temp;Humidity;BMP_temperature;BMP_pressure;BME280_temperature;BME280_humidity;BME280_pressure;Samples;Min_cycle;Max_cycle;Signal;HPM_P1;HPM_P2
2023/06/28 00:00:25;;;;;;;4.75;1.40;;;18.20;78.90;;;;;;4823498;29;91895;-85
2023/06/28 00:02:51;;;;;;;8.57;1.33;;;18.20;80.00;;;;;;4822006;29;91261;-84
2023/06/28 00:05:17;;;;;;;5.32;1.88;;;18.10;79.80;;;;;;4822943;29;87618;-86
2023/06/28 00:07:42;;;;;;;7.03;1.20;;;18.20;80.50;;;;;;4822099;29;89138;-85
2023/06/28 00:10:08;;;;;;;4.88;1.30;;;18.10;81.40;;;;;;4822074;29;91078;-85
2023/06/28 00:12:35;;;;;;;6.05;1.80;;;18.10;81.40;;;;;;4808172;29;90274;-85
2023/06/28 00:15:01;;;;;;;6.53;1.80;;;18.10;81.10;;;;;;4822278;29;87739;-86
2023/06/28 00:17:29;;;;;;;6.10;1.67;;;18.10;81.70;;;;;;4822318;29;90174;-85
2023/06/28 00:20:00;;;;;;;4.07;1.35;;;18.00;82.30;;;;;;4805720;29;91354;-86
2023/06/28 00:22:29;;;;;;;4.28;1.50;;;18.00;82.20;;;;;;4806702;29;90898;-87
2023/06/28 00:25:02;;;;;;;6.40;2.20;;;17.90;81.90;;;;;;4821809;29;87723;-86
2023/06/28 00:27:29;;;;;;;6.55;2.10;;;17.90;82.20;;;;;;4824226;29;87634;-84
2023/06/28 00:29:57;;;;;;;7.57;2.17;;;17.90;82.30;;;;;;4821838;29;90452;-86
2023/06/28 00:32:27;;;;;;;8.23;2.33;;;17.80;83.00;;;;;;4821990;29;90999;-86
2023/06/28 00:34:52;;;;;;;4.68;1.60;;;17.80;83.80;;;;;;4822736;29;87499;-86
2023/06/28 00:37:18;;;;;;;4.63;1.77;;;17.80;83.90;;;;;;4821586;29;89469;-86
2023/06/28 00:39:44;;;;;;;2.55;1.48;;;17.80;84.30;;;;;;4822980;29;91420;-86
2023/06/28 00:42:10;;;;;;;3.85;1.45;;;17.80;84.30;;;;;;4821999;29;90945;-86
2023/06/28 00:44:36;;;;;;;3.72;1.58;;;17.80;84.00;;;;;;4821969;29;88762;-86
2023/06/28 00:47:03;;;;;;;5.43;1.80;;;17.80;84.00;;;;;;4821948;29;89033;-86
2023/06/28 00:49:31;;;;;;;4.45;1.40;;;17.80;83.40;;;;;;4822068;29;92102;-86
2023/06/28 00:51:58;;;;;;;4.65;1.88;;;17.80;84.10;;;;;;4821946;29;90054;-86
2023/06/28 00:54:24;;;;;;;4.50;1.58;;;17.80;84.50;;;;;;4823562;29;87188;-86
2023/06/28 00:56:51;;;;;;;8.65;2.13;;;17.80;84.20;;;;;;4823370;29;87719;-85
2023/06/28 00:59:17;;;;;;;6.85;1.48;;;17.70;84.30;;;;;;4808741;29;90248;-86
2023/06/28 01:01:43;;;;;;;9.32;1.90;;;17.70;84.20;;;;;;4810496;29;90260;-86
2023/06/28 01:04:09;;;;;;;7.75;2.00;;;17.70;84.00;;;;;;4824880;29;88268;-86
2023/06/28 01:06:37;;;;;;;4.57;1.65;;;17.70;84.50;;;;;;4826002;29;90855;-86
2023/06/28 01:09:07;;;;;;;4.88;2.05;;;17.60;84.40;;;;;;4809168;29;92616;-86
2023/06/28 01:11:34;;;;;;;5.72;2.20;;;17.60;85.30;;;;;;4809138;29;91175;-86
2023/06/28 01:14:01;;;;;;;4.18;1.77;;;17.60;85.40;;;;;;4824582;29;87656;-87
2023/06/28 01:16:26;;;;;;;7.88;1.90;;;17.60;84.90;;;;;;4809647;29;94873;-86
2023/06/28 01:18:52;;;;;;;3.67;1.50;;;17.60;84.00;;;;;;4825278;29;91657;-86
2023/06/28 01:21:20;;;;;;;4.25;1.45;;;17.50;85.10;;;;;;4810301;29;91260;-85
2023/06/28 01:23:46;;;;;;;4.20;1.70;;;17.60;85.80;;;;;;4808996;29;87803;-84
2023/06/28 01:26:12;;;;;;;5.95;1.65;;;17.50;85.80;;;;;;4809431;29;95156;-86
2023/06/28 01:28:38;;;;;;;5.47;1.98;;;17.60;85.90;;;;;;4824444;29;91420;-87
2023/06/28 01:31:05;;;;;;;6.45;2.08;;;17.50;85.80;;;;;;4826826;29;88544;-85
2023/06/28 01:33:30;;;;;;;9.88;2.60;;;17.50;86.30;;;;;;4826290;29;88700;-87
2023/06/28 01:35:59;;;;;;;3.88;1.50;;;17.50;86.30;;;;;;4809653;29;90318;-86
2023/06/28 01:38:26;;;;;;;8.90;2.10;;;17.50;86.80;;;;;;4824663;29;91412;-86
2023/06/28 01:40:53;;;;;;;3.35;1.48;;;17.50;86.70;;;;;;4808897;29;90581;-85
2023/06/28 01:43:20;;;;;;;3.05;1.42;;;17.50;87.60;;;;;;4808952;29;87859;-86
2023/06/28 01:45:46;;;;;;;3.75;1.92;;;17.50;87.60;;;;;;4825128;29;90363;-85
2023/06/28 01:48:13;;;;;;;3.85;1.38;;;17.50;87.60;;;;;;4824688;29;91426;-86
2023/06/28 01:50:39;;;;;;;8.40;1.85;;;17.50;87.50;;;;;;4809821;29;89966;-86
2023/06/28 01:53:05;;;;;;;5.80;2.20;;;17.50;87.30;;;;;;4824095;29;87115;-87
2023/06/28 01:55:32;;;;;;;6.10;2.05;;;17.50;86.70;;;;;;4824325;29;90416;-86
2023/06/28 01:57:57;;;;;;;7.18;1.95;;;17.50;86.90;;;;;;4824223;29;92142;-87
2023/06/28 02:00:23;;;;;;;8.10;2.28;;;17.50;87.00;;;;;;4825000;29;92131;-86
2023/06/28 02:02:50;;;;;;;7.18;1.92;;;17.50;88.00;;;;;;4824570;29;87815;-87
2023/06/28 02:05:16;;;;;;;6.43;1.67;;;17.50;87.60;;;;;;4823712;29;89118;-87
2023/06/28 02:07:42;;;;;;;9.25;2.38;;;17.50;88.00;;;;;;4809082;29;91417;-86
2023/06/28 02:10:09;;;;;;;7.82;1.80;;;17.50;87.90;;;;;;4824422;29;91409;-86
2023/06/28 02:12:35;;;;;;;7.70;2.38;;;17.40;87.70;;;;;;4809644;29;87608;-86
2023/06/28 02:15:03;;;;;;;5.65;1.70;;;17.50;88.40;;;;;;4824560;29;89152;-86
2023/06/28 02:17:30;;;;;;;8.15;2.30;;;17.40;88.40;;;;;;4824056;29;90364;-86
2023/06/28 02:19:56;;;;;;;6.25;1.92;;;17.50;88.30;;;;;;4824530;29;91070;-87
2023/06/28 02:22:22;;;;;;;4.40;1.92;;;17.40;88.00;;;;;;4824407;29;88781;-86
2023/06/28 02:24:48;;;;;;;9.05;2.10;;;17.40;88.20;;;;;;4824609;29;89306;-86
2023/06/28 02:27:14;;;;;;;6.55;2.13;;;17.40;88.40;;;;;;4823968;29;90127;-85
2023/06/28 02:29:40;;;;;;;5.13;1.83;;;17.40;89.00;;;;;;4808859;29;91195;-85
2023/06/28 02:32:06;;;;;;;3.83;1.50;;;17.40;89.10;;;;;;4824288;29;87711;-87
2023/06/28 02:34:32;;;;;;;4.50;1.80;;;17.40;89.00;;;;;;4824328;29;89155;-85
2023/06/28 02:36:58;;;;;;;6.28;2.13;;;17.50;88.50;;;;;;4808265;29;90432;-84
2023/06/28 02:39:24;;;;;;;7.80;1.90;;;17.40;88.50;;;;;;4824851;29;91355;-86
2023/06/28 02:41:50;;;;;;;8.38;1.83;;;17.50;88.40;;;;;;4824657;29;87649;-86
2023/06/28 02:44:16;;;;;;;5.22;1.55;;;17.50;88.60;;;;;;4808630;29;89949;-87
2023/06/28 02:46:41;;;;;;;5.15;1.40;;;17.40;89.40;;;;;;4808204;29;92003;-87
2023/06/28 02:49:07;;;;;;;12.75;1.98;;;17.50;89.50;;;;;;4808720;29;90920;-85
2023/06/28 02:51:33;;;;;;;5.38;1.70;;;17.50;90.00;;;;;;4824689;29;87926;-85
2023/06/28 02:53:59;;;;;;;5.55;1.80;;;17.50;90.10;;;;;;4808578;29;90347;-86
2023/06/28 02:56:25;;;;;;;6.93;2.17;;;17.50;90.20;;;;;;4808692;29;91132;-85
2023/06/28 02:58:51;;;;;;;7.10;2.00;;;17.50;90.00;;;;;;4823501;29;89949;-85
2023/06/28 03:01:17;;;;;;;5.80;1.88;;;17.50;90.20;;;;;;4824480;29;87779;-86
2023/06/28 03:03:42;;;;;;;3.95;2.00;;;17.50;90.30;;;;;;4824871;29;90679;-86
2023/06/28 03:06:08;;;;;;;7.00;1.83;;;17.50;90.40;;;;;;4823405;29;90588;-85
2023/06/28 03:08:34;;;;;;;3.80;1.50;;;17.50;90.50;;;;;;4824190;29;90526;-86
2023/06/28 03:10:59;;;;;;;5.90;2.17;;;17.50;90.20;;;;;;4808190;29;88070;-86
2023/06/28 03:13:25;;;;;;;5.32;2.00;;;17.50;90.50;;;;;;4822949;29;90089;-86
2023/06/28 03:15:51;;;;;;;4.47;2.17;;;17.40;90.60;;;;;;4823581;29;91491;-86
2023/06/28 03:18:17;;;;;;;5.18;1.95;;;17.40;90.90;;;;;;4823570;29;94443;-85
2023/06/28 03:20:42;;;;;;;7.40;2.10;;;17.40;90.90;;;;;;4807188;29;87770;-86
2023/06/28 03:23:08;;;;;;;8.52;2.72;;;17.40;91.10;;;;;;4824520;29;89556;-85
2023/06/28 03:25:33;;;;;;;5.20;2.35;;;17.40;91.40;;;;;;4808178;29;91478;-86
2023/06/28 03:27:59;;;;;;;6.22;2.25;;;17.40;91.70;;;;;;4823218;29;90107;-86
2023/06/28 03:30:25;;;;;;;5.78;2.20;;;17.40;91.60;;;;;;4808839;29;87847;-86
2023/06/28 03:32:50;;;;;;;4.38;1.95;;;17.30;91.70;;;;;;4824831;29;87426;-86
2023/06/28 03:35:16;;;;;;;5.63;2.03;;;17.40;91.80;;;;;;4822274;29;92653;-85
2023/06/28 03:37:56;;;;;;;6.07;2.42;;;17.40;91.80;;;;;;4823616;29;92748;-87
2023/06/28 03:40:21;;;;;;;4.95;1.88;;;17.30;91.60;;;;;;4807518;29;87394;-86
2023/06/28 03:42:48;;;;;;;5.07;2.17;;;17.40;91.70;;;;;;4823921;29;89179;-86
2023/06/28 03:45:14;;;;;;;5.75;2.10;;;17.40;91.70;;;;;;4807934;29;90581;-85
2023/06/28 03:47:40;;;;;;;10.23;3.15;;;17.40;91.50;;;;;;4822801;29;91213;-86
2023/06/28 03:50:07;;;;;;;6.97;2.20;;;17.30;91.50;;;;;;4824187;29;87554;-86
2023/06/28 03:52:33;;;;;;;5.15;2.30;;;17.30;91.30;;;;;;4807723;29;89593;-86
2023/06/28 03:54:59;;;;;;;5.18;2.20;;;17.30;91.50;;;;;;4822917;29;90002;-87
2023/06/28 03:57:24;;;;;;;7.63;2.25;;;17.30;92.00;;;;;;4824126;29;89815;-86
2023/06/28 03:59:50;;;;;;;5.50;2.30;;;17.30;92.00;;;;;;4822973;29;88611;-86
2023/06/28 04:02:15;;;;;;;11.45;2.72;;;17.30;91.80;;;;;;4822920;29;90341;-86
2023/06/28 04:04:41;;;;;;;9.93;3.13;;;17.30;92.10;;;;;;4822700;29;91291;-86
2023/06/28 04:07:07;;;;;;;6.25;2.72;;;17.30;91.70;;;;;;4823015;29;91398;-85
2023/06/28 04:09:33;;;;;;;6.90;3.00;;;17.20;91.50;;;;;;4823228;29;87520;-87
2023/06/28 04:11:58;;;;;;;7.35;2.67;;;17.30;91.30;;;;;;4822973;29;90121;-87
2023/06/28 04:14:24;;;;;;;8.30;2.60;;;17.20;91.00;;;;;;4822446;29;91401;-85
2023/06/28 04:16:53;;;;;;;10.80;3.20;;;17.20;91.10;;;;;;4822904;29;90950;-86
2023/06/28 04:19:19;;;;;;;8.18;2.55;;;17.20;91.30;;;;;;4823292;29;87168;-86
2023/06/28 04:21:45;;;;;;;4.82;2.20;;;17.20;91.70;;;;;;4823162;29;89501;-85
2023/06/28 04:24:11;;;;;;;4.53;1.80;;;17.20;91.60;;;;;;4821735;29;92407;-86
2023/06/28 04:26:37;;;;;;;7.22;2.22;;;17.20;91.80;;;;;;4822914;29;91985;-85
2023/06/28 04:29:03;;;;;;;6.88;2.55;;;17.20;92.10;;;;;;4823149;29;88018;-86
2023/06/28 04:31:29;;;;;;;5.72;2.58;;;17.20;91.90;;;;;;4821325;29;89706;-86
2023/06/28 04:33:57;;;;;;;7.70;2.20;;;17.20;91.80;;;;;;4820313;29;90519;-85
2023/06/28 04:36:26;;;;;;;7.38;2.38;;;17.30;92.00;;;;;;4805589;29;90262;-85
2023/06/28 04:38:54;;;;;;;10.10;2.30;;;17.20;92.00;;;;;;4805923;29;87678;-85
2023/06/28 04:41:21;;;;;;;6.97;2.22;;;17.20;91.80;;;;;;4820498;29;89640;-86
2023/06/28 04:43:47;;;;;;;8.48;2.38;;;17.20;91.90;;;;;;4820479;29;91126;-86
2023/06/28 04:46:13;;;;;;;5.97;2.05;;;17.20;92.10;;;;;;4821922;29;91218;-86
2023/06/28 04:48:42;;;;;;;6.88;2.40;;;17.20;92.20;;;;;;4824011;29;88447;-86
2023/06/28 04:51:08;;;;;;;7.38;2.47;;;17.20;92.60;;;;;;4807460;29;89476;-86
2023/06/28 04:53:34;;;;;;;10.82;3.13;;;17.20;92.50;;;;;;4822164;29;91969;-86
2023/06/28 04:56:00;;;;;;;8.32;2.65;;;17.20;92.70;;;;;;4806194;29;90032;-84
2023/06/28 04:58:26;;;;;;;5.93;2.38;;;17.10;92.70;;;;;;4822038;29;87455;-87
2023/06/28 05:00:52;;;;;;;11.07;2.88;;;17.20;92.70;;;;;;4822514;29;91144;-85
2023/06/28 05:03:18;;;;;;;7.20;3.25;;;17.20;92.80;;;;;;4823255;29;90321;-85
2023/06/28 05:05:43;;;;;;;7.45;2.58;;;17.10;92.60;;;;;;4821987;29;90564;-86
2023/06/28 05:08:09;;;;;;;7.15;2.85;;;17.10;92.30;;;;;;4822528;29;88294;-85
2023/06/28 05:10:36;;;;;;;9.13;2.95;;;17.10;92.40;;;;;;4821542;29;90200;-87
2023/06/28 05:13:02;;;;;;;8.10;2.88;;;17.10;92.30;;;;;;4821457;29;94221;-86
2023/06/28 05:15:32;;;;;;;12.82;2.85;;;17.10;92.10;;;;;;4822905;29;90967;-86
2023/06/28 05:17:58;;;;;;;11.35;3.40;;;17.10;92.30;;;;;;4822173;29;87478;-84
2023/06/28 05:20:24;;;;;;;6.28;2.65;;;17.10;92.50;;;;;;4807003;29;89248;-86
2023/06/28 05:23:07;;;;;;;9.45;2.72;;;17.10;92.50;;;;;;4821973;29;91518;-87
2023/06/28 05:25:32;;;;;;;7.05;2.90;;;17.10;92.60;;;;;;4820812;29;91717;-87
2023/06/28 05:27:58;;;;;;;10.68;2.75;;;17.10;92.80;;;;;;4821526;29;88244;-85
2023/06/28 05:30:23;;;;;;;12.75;3.22;;;17.10;92.80;;;;;;4821644;29;90282;-87
2023/06/28 05:32:49;;;;;;;8.18;3.25;;;17.20;92.70;;;;;;4821065;29;89913;-87
2023/06/28 05:35:15;;;;;;;9.00;2.90;;;17.20;92.50;;;;;;4806996;29;88901;-85
2023/06/28 05:37:41;;;;;;;10.35;3.00;;;17.20;92.40;;;;;;4820996;29;88744;-86
2023/06/28 05:40:08;;;;;;;7.70;2.65;;;17.20;92.40;;;;;;4821570;29;89566;-85
2023/06/28 05:42:33;;;;;;;5.32;2.50;;;17.20;92.00;;;;;;4807146;29;92345;-87
2023/06/28 05:44:59;;;;;;;9.52;3.92;;;17.20;92.00;;;;;;4824949;29;90220;-87
2023/06/28 05:47:25;;;;;;;11.65;3.67;;;17.10;92.30;;;;;;4825259;29;87624;-86
2023/06/28 05:49:50;;;;;;;8.73;4.25;;;17.20;92.10;;;;;;4808678;29;90165;-86
2023/06/28 05:52:16;;;;;;;9.57;4.40;;;17.20;92.40;;;;;;4823801;29;89766;-86
2023/06/28 05:54:42;;;;;;;8.73;3.80;;;17.20;92.20;;;;;;4826170;29;91130;-86
2023/06/28 05:57:08;;;;;;;10.32;3.90;;;17.20;92.00;;;;;;4810657;29;87704;-87
2023/06/28 05:59:33;;;;;;;8.80;4.15;;;17.20;92.00;;;;;;4825104;29;89987;-86
2023/06/28 06:01:59;;;;;;;11.48;4.88;;;17.20;92.10;;;;;;4823764;29;92453;-86
2023/06/28 06:04:24;;;;;;;7.97;3.95;;;17.20;92.20;;;;;;4823904;29;91199;-84
2023/06/28 06:06:50;;;;;;;12.98;4.40;;;17.30;92.20;;;;;;4825416;29;87193;-86
2023/06/28 06:09:15;;;;;;;10.25;4.80;;;17.30;92.20;;;;;;4824299;29;89202;-85
2023/06/28 06:11:41;;;;;;;7.50;3.60;;;17.30;92.40;;;;;;4824351;29;91095;-87
2023/06/28 06:14:07;;;;;;;10.70;4.00;;;17.30;92.30;;;;;;4824336;29;90907;-86
2023/06/28 06:16:33;;;;;;;7.43;3.47;;;17.40;92.40;;;;;;4809600;29;87883;-86
2023/06/28 06:18:58;;;;;;;11.40;3.72;;;17.40;92.00;;;;;;4824910;29;90141;-85
2023/06/28 06:21:24;;;;;;;8.20;3.80;;;17.50;92.30;;;;;;4824982;29;90517;-84
2023/06/28 06:23:51;;;;;;;7.60;3.55;;;17.50;92.20;;;;;;4824198;29;90056;-85
2023/06/28 06:26:17;;;;;;;12.25;4.13;;;17.50;92.00;;;;;;4822690;29;88576;-86
2023/06/28 06:28:43;;;;;;;10.45;4.07;;;17.60;92.30;;;;;;4822898;29;88596;-85
2023/06/28 06:31:13;;;;;;;8.80;3.42;;;17.60;91.90;;;;;;4822953;29;91218;-87
2023/06/28 06:33:39;;;;;;;11.15;3.60;;;17.70;91.80;;;;;;4824267;29;91326;-87
2023/06/28 06:36:05;;;;;;;11.50;3.83;;;17.70;91.80;;;;;;4824523;29;87830;-90
2023/06/28 06:38:30;;;;;;;12.20;3.70;;;17.80;91.30;;;;;;4828587;29;90768;-95
2023/06/28 06:40:56;;;;;;;13.80;3.90;;;17.80;91.30;;;;;;4827484;29;90520;-92
2023/06/28 06:43:22;;;;;;;15.95;3.92;;;17.80;90.50;;;;;;4825203;29;91559;-93
2023/06/28 06:45:47;;;;;;;10.40;3.88;;;17.80;90.60;;;;;;4810010;29;87559;-92
2023/06/28 06:48:13;;;;;;;10.38;3.67;;;17.80;90.30;;;;;;4808114;29;89226;-93
2023/06/28 06:50:38;;;;;;;7.40;3.85;;;17.80;90.70;;;;;;4822504;29;91504;-88
2023/06/28 06:53:04;;;;;;;9.10;4.40;;;17.90;90.50;;;;;;4822691;29;90987;-88
2023/06/28 06:55:30;;;;;;;13.93;5.03;;;17.90;90.50;;;;;;4821990;29;87707;-90
2023/06/28 06:57:55;;;;;;;9.15;4.50;;;17.90;90.90;;;;;;4821208;29;90261;-87
2023/06/28 07:00:21;;;;;;;12.18;5.20;;;17.90;90.70;;;;;;4823462;29;91593;-88
2023/06/28 07:02:46;;;;;;;14.60;5.22;;;18.00;90.60;;;;;;4807186;29;91481;-89
2023/06/28 07:05:12;;;;;;;10.20;4.68;;;18.10;90.20;;;;;;4807221;29;88204;-88
2023/06/28 07:07:38;;;;;;;18.13;5.15;;;18.10;90.60;;;;;;4808237;29;89889;-87
2023/06/28 07:10:04;;;;;;;10.70;4.28;;;18.10;90.20;;;;;;4822592;29;91075;-88
2023/06/28 07:12:31;;;;;;;11.35;4.60;;;18.20;90.50;;;;;;4823188;29;91163;-89
2023/06/28 07:14:57;;;;;;;9.43;4.35;;;18.20;90.30;;;;;;4823000;29;88400;-87
2023/06/28 07:17:22;;;;;;;11.60;3.33;;;18.30;90.30;;;;;;4807520;29;90319;-88
2023/06/28 07:19:48;;;;;;;11.70;3.92;;;18.40;90.20;;;;;;4806771;29;91323;-88
2023/06/28 07:22:14;;;;;;;11.13;3.50;;;18.40;89.50;;;;;;4806744;29;90016;-88
2023/06/28 07:24:39;;;;;;;14.40;3.78;;;18.50;89.00;;;;;;4765035;29;1746648;-88
2023/06/28 07:27:05;;;;;;;9.73;2.88;;;18.50;88.20;;;;;;4823141;29;89955;-87
2023/06/28 07:29:31;;;;;;;10.40;3.17;;;18.60;88.70;;;;;;4824048;29;91711;-89
2023/06/28 07:31:57;;;;;;;11.13;3.10;;;18.60;86.90;;;;;;4809149;29;90983;-89
2023/06/28 07:34:23;;;;;;;12.10;4.10;;;18.70;87.30;;;;;;4823817;29;87658;-87
2023/06/28 07:36:48;;;;;;;13.70;3.58;;;18.70;86.50;;;;;;4824160;29;90239;-87
2023/06/28 07:39:14;;;;;;;12.85;4.20;;;18.70;86.00;;;;;;4824224;29;91139;-86
2023/06/28 07:41:39;;;;;;;9.50;3.17;;;18.70;84.90;;;;;;4822910;29;92229;-84
2023/06/28 07:44:05;;;;;;;9.55;3.60;;;18.70;85.90;;;;;;4822942;29;87636;-85
2023/06/28 07:46:31;;;;;;;7.38;3.30;;;18.80;85.80;;;;;;4822948;29;89459;-87
2023/06/28 07:48:59;;;;;;;12.52;4.22;;;18.80;84.40;;;;;;4823184;29;91807;-84
2023/06/28 07:51:25;;;;;;;9.95;3.75;;;18.80;84.40;;;;;;4823418;29;90021;-87
2023/06/28 07:53:51;;;;;;;21.75;4.25;;;18.80;84.70;;;;;;4807883;29;88072;-88
2023/06/28 07:56:19;;;;;;;14.48;4.53;;;18.90;84.60;;;;;;4823774;29;90236;-87
2023/06/28 07:58:45;;;;;;;10.57;4.43;;;19.00;83.40;;;;;;4822509;29;91184;-86
2023/06/28 08:01:11;;;;;;;12.52;3.90;;;19.10;83.40;;;;;;4807004;29;91092;-87
2023/06/28 08:03:36;;;;;;;24.40;5.60;;;19.20;84.10;;;;;;4823576;29;88400;-87
2023/06/28 08:06:02;;;;;;;11.02;3.85;;;19.30;83.60;;;;;;4822553;29;90133;-87
2023/06/28 08:08:28;;;;;;;15.63;4.00;;;19.40;82.80;;;;;;4822698;29;91710;-88
2023/06/28 08:10:53;;;;;;;7.72;3.42;;;19.40;80.40;;;;;;4822980;29;91078;-88
2023/06/28 08:13:19;;;;;;;8.38;3.45;;;19.50;79.70;;;;;;4822435;29;87708;-87
2023/06/28 08:15:45;;;;;;;8.95;4.07;;;19.60;80.00;;;;;;4823527;29;90590;-90
2023/06/28 08:18:10;;;;;;;15.07;3.80;;;19.60;78.20;;;;;;4822690;29;91774;-86
2023/06/28 08:20:37;;;;;;;10.25;3.33;;;19.70;78.20;;;;;;4822895;29;90974;-85
2023/06/28 08:23:03;;;;;;;8.40;3.05;;;19.70;77.20;;;;;;4821954;29;87770;-88
2023/06/28 08:25:28;;;;;;;16.23;3.45;;;19.80;77.30;;;;;;4822602;29;90497;-85
2023/06/28 08:27:54;;;;;;;6.68;2.55;;;19.80;75.70;;;;;;4821842;29;91577;-86
2023/06/28 08:30:20;;;;;;;9.63;2.85;;;19.90;76.80;;;;;;4822716;29;91870;-87
2023/06/28 08:32:45;;;;;;;7.88;2.63;;;20.00;78.20;;;;;;4806907;29;87528;-87
2023/06/28 08:35:11;;;;;;;10.45;2.40;;;20.10;76.30;;;;;;4821726;29;89389;-88
2023/06/28 08:37:37;;;;;;;8.15;2.35;;;20.30;76.00;;;;;;4822619;29;90639;-89
2023/06/28 08:40:05;;;;;;;7.43;1.98;;;20.30;74.10;;;;;;4822537;29;91463;-88
2023/06/28 08:42:34;;;;;;;3.63;1.95;;;20.40;74.40;;;;;;4810293;29;88068;-88
2023/06/28 08:45:02;;;;;;;7.35;2.38;;;20.50;73.50;;;;;;4808145;29;89679;-91
2023/06/28 08:47:31;;;;;;;3.83;1.65;;;20.60;73.40;;;;;;4809764;29;90384;-90
2023/06/28 08:49:58;;;;;;;8.45;1.77;;;20.70;71.50;;;;;;4813885;29;90155;-90
2023/06/28 08:52:24;;;;;;;9.20;1.98;;;20.70;71.70;;;;;;4807325;29;88461;-85
2023/06/28 08:54:51;;;;;;;6.78;1.92;;;20.70;70.70;;;;;;4807158;29;90648;-87
2023/06/28 08:57:17;;;;;;;7.18;1.90;;;20.70;70.70;;;;;;4822644;29;94751;-86
2023/06/28 08:59:44;;;;;;;5.32;2.00;;;20.80;71.10;;;;;;4807908;29;90339;-86
2023/06/28 09:02:13;;;;;;;11.82;2.42;;;20.80;69.70;;;;;;4822793;29;88257;-86
2023/06/28 09:04:39;;;;;;;7.90;2.42;;;20.80;69.50;;;;;;4787047;29;89046;-85
2023/06/28 09:07:06;;;;;;;6.20;2.20;;;20.80;70.10;;;;;;4821388;29;91840;-85
2023/06/28 09:09:34;;;;;;;5.10;2.17;;;20.80;69.90;;;;;;4808330;29;91061;-86
2023/06/28 09:12:01;;;;;;;7.82;2.53;;;20.80;70.20;;;;;;4821144;29;87858;-85
2023/06/28 09:14:27;;;;;;;6.50;2.22;;;20.90;71.60;;;;;;4807534;29;89076;-85
2023/06/28 09:16:53;;;;;;;6.47;2.22;;;21.00;71.30;;;;;;4821586;29;91112;-86
2023/06/28 09:19:19;;;;;;;4.53;2.17;;;21.10;69.00;;;;;;4809406;29;91696;-87
2023/06/28 09:21:45;;;;;;;5.65;2.42;;;21.10;69.40;;;;;;4826174;29;87589;-86
2023/06/28 09:24:12;;;;;;;10.18;2.40;;;21.20;69.80;;;;;;4824525;29;88973;-86
2023/06/28 09:26:40;;;;;;;8.13;2.47;;;21.30;67.90;;;;;;4811749;29;89966;-86
2023/06/28 09:29:11;;;;;;;9.75;2.50;;;21.30;68.70;;;;;;4808856;29;91718;-87
2023/06/28 09:31:44;;;;;;;10.05;2.30;;;21.30;68.00;;;;;;4810629;29;87921;-85
2023/06/28 09:34:10;;;;;;;10.02;3.00;;;21.40;68.30;;;;;;4824326;29;90165;-86
2023/06/28 09:36:37;;;;;;;10.77;2.33;;;21.40;68.10;;;;;;4825219;29;92018;-85
2023/06/28 09:39:04;;;;;;;6.22;2.30;;;21.50;68.80;;;;;;4824797;29;90587;-86
2023/06/28 09:41:41;;;;;;;7.72;2.45;;;21.60;68.40;;;;;;4810444;29;88842;-91
2023/06/28 09:44:09;;;;;;;8.23;2.33;;;21.80;68.00;;;;;;4809661;29;90497;-90
2023/06/28 09:46:35;;;;;;;8.27;2.30;;;21.80;68.40;;;;;;4809937;29;91636;-89
2023/06/28 09:49:01;;;;;;;8.50;2.65;;;22.00;67.70;;;;;;4825418;29;90248;-91
2023/06/28 09:51:27;;;;;;;8.95;2.97;;;22.10;67.40;;;;;;4825803;29;87834;-90
2023/06/28 09:53:54;;;;;;;7.00;2.38;;;22.20;66.50;;;;;;4810469;29;90039;-91
2023/06/28 09:56:38;;;;;;;8.70;2.10;;;22.40;65.90;;;;;;4825147;29;91167;-91
2023/06/28 09:59:08;;;;;;;10.27;3.05;;;22.40;64.60;;;;;;4808971;29;90052;-89
2023/06/28 10:01:39;;;;;;;6.22;1.88;;;22.40;64.60;;;;;;4809374;29;87572;-91
2023/06/28 10:04:08;;;;;;;13.00;3.22;;;22.50;66.60;;;;;;4809373;29;90437;-90
2023/06/28 10:06:35;;;;;;;9.35;2.13;;;22.60;65.30;;;;;;4808879;29;92344;-88
2023/06/28 10:09:01;;;;;;;7.28;2.20;;;22.60;65.90;;;;;;4809151;29;92164;-89
2023/06/28 10:11:30;;;;;;;10.55;2.60;;;22.60;64.60;;;;;;4825888;29;87184;-90
2023/06/28 10:13:56;;;;;;;7.95;2.47;;;22.70;66.90;;;;;;4808642;29;89655;-88
2023/06/28 10:16:26;;;;;;;13.68;2.55;;;22.80;65.90;;;;;;4824341;29;91075;-88
2023/06/28 10:18:51;;;;;;;5.25;2.20;;;23.00;66.00;;;;;;4824329;29;91014;-88
2023/06/28 10:21:18;;;;;;;8.43;2.63;;;23.10;64.70;;;;;;4824573;29;87744;-87
2023/06/28 10:23:44;;;;;;;9.63;2.60;;;23.30;64.70;;;;;;4826362;29;90366;-87
2023/06/28 10:26:12;;;;;;;10.98;2.70;;;23.40;63.60;;;;;;4824401;29;91343;-85
2023/06/28 10:28:40;;;;;;;7.85;3.00;;;23.40;64.30;;;;;;4807686;29;89488;-87
2023/06/28 10:31:06;;;;;;;15.77;3.55;;;23.40;63.70;;;;;;4808255;29;88356;-88
2023/06/28 10:33:33;;;;;;;9.25;2.58;;;23.50;65.30;;;;;;4808490;29;90173;-86
2023/06/28 10:36:00;;;;;;;8.00;2.05;;;23.60;63.50;;;;;;4824966;29;90300;-86
2023/06/28 10:38:46;;;;;;;7.20;2.38;;;23.70;66.10;;;;;;4825404;29;95257;-86
2023/06/28 10:41:16;;;;;;;8.52;2.30;;;23.80;62.30;;;;;;4807303;29;87240;-87
2023/06/28 10:43:42;;;;;;;10.52;2.95;;;23.90;62.70;;;;;;4807928;29;89593;-86
2023/06/28 10:46:24;;;;;;;9.85;2.58;;;24.20;63.90;;;;;;4823134;29;92074;-86
2023/06/28 10:48:54;;;;;;;7.60;2.72;;;24.40;63.10;;;;;;4824404;29;90340;-87
2023/06/28 10:51:24;;;;;;;7.78;2.58;;;24.60;61.40;;;;;;4824766;29;87325;-86
2023/06/28 10:54:04;;;;;;;7.95;3.08;;;24.80;61.10;;;;;;4808058;29;89496;-88
2023/06/28 10:56:42;;;;;;;10.13;2.95;;;25.00;59.90;;;;;;4823396;29;95667;-88
2023/06/28 10:59:08;;;;;;;6.60;2.78;;;25.10;61.30;;;;;;4823343;29;91962;-84
2023/06/28 11:01:49;;;;;;;8.85;2.80;;;25.20;59.40;;;;;;4823466;29;87604;-83
2023/06/28 11:04:18;;;;;;;12.07;3.17;;;25.20;60.90;;;;;;4822794;29;90337;-85
2023/06/28 11:06:45;;;;;;;12.98;3.10;;;25.30;62.30;;;;;;4807804;29;90976;-83
2023/06/28 11:09:16;;;;;;;5.75;2.65;;;25.30;60.30;;;;;;4823140;29;90815;-86
2023/06/28 11:11:54;;;;;;;6.20;2.30;;;25.30;59.50;;;;;;4808634;29;87843;-85
2023/06/28 11:14:22;;;;;;;7.10;2.50;;;25.30;60.70;;;;;;4808542;29;90441;-86
2023/06/28 11:16:48;;;;;;;7.10;2.30;;;25.40;62.30;;;;;;4822640;29;91065;-83
2023/06/28 11:19:15;;;;;;;7.35;2.40;;;25.50;62.50;;;;;;4807025;29;89801;-82
2023/06/28 11:21:41;;;;;;;5.70;2.42;;;25.60;61.00;;;;;;4805891;29;88981;-81
2023/06/28 11:24:07;;;;;;;6.25;2.03;;;25.80;59.80;;;;;;4806597;29;90508;-83
2023/06/28 11:26:37;;;;;;;7.03;2.20;;;25.90;59.40;;;;;;4824916;29;88760;-82
2023/06/28 11:29:18;;;;;;;10.23;2.97;;;26.10;58.50;;;;;;4822161;29;91122;-82
2023/06/28 11:31:51;;;;;;;11.70;2.92;;;26.20;57.60;;;;;;4824093;29;87679;-85
2023/06/28 11:34:18;;;;;;;7.32;2.63;;;26.20;57.50;;;;;;4822322;29;89681;-80
2023/06/28 11:39:18;;;;;;;7.75;2.75;;;26.50;58.70;;;;;;4823989;29;87290;-78
2023/06/28 11:41:44;;;;;;;8.27;2.65;;;26.70;58.60;;;;;;4821381;29;87923;-78
2023/06/28 11:44:12;;;;;;;11.65;3.00;;;27.10;57.80;;;;;;4824386;28;87202;-81
2023/06/28 11:46:39;;;;;;;10.50;3.10;;;27.30;55.90;;;;;;4806029;29;89901;-80
2023/06/28 11:49:04;;;;;;;8.00;3.20;;;27.30;55.60;;;;;;4824217;29;88008;-80
2023/06/28 11:51:31;;;;;;;9.27;2.88;;;27.40;55.30;;;;;;4823699;29;87527;-80
2023/06/28 11:53:57;;;;;;;9.15;2.85;;;27.50;55.10;;;;;;4822155;29;87431;-79
2023/06/28 11:56:34;;;;;;;8.43;3.50;;;27.70;58.60;;;;;;4821061;29;89243;-79
2023/06/28 11:59:13;;;;;;;10.68;3.78;;;28.00;54.00;;;;;;4825096;29;88102;-78
2023/06/28 12:01:39;;;;;;;4.72;2.60;;;28.00;54.10;;;;;;4823335;29;88282;-78
2023/06/28 12:04:16;;;;;;;10.27;3.35;;;28.00;54.30;;;;;;4806602;29;88827;-79
2023/06/28 12:06:43;;;;;;;10.90;2.95;;;28.10;54.40;;;;;;4823196;29;88612;-79
2023/06/28 12:09:24;;;;;;;8.00;3.40;;;28.40;55.70;;;;;;4821116;29;88170;-77
2023/06/28 12:11:55;;;;;;;9.73;4.38;;;28.60;52.50;;;;;;4823512;29;88769;-78
2023/06/28 12:16:54;;;;;;;9.52;4.57;;;28.50;52.30;;;;;;4810594;29;88178;-74
2023/06/28 12:19:24;;;;;;;9.32;5.10;;;28.50;52.00;;;;;;4801872;29;91411;-75
2023/06/28 12:21:53;;;;;;;7.90;4.13;;;28.40;51.90;;;;;;4817429;29;88043;-74
2023/06/28 12:24:24;;;;;;;8.82;3.90;;;28.40;52.10;;;;;;4817298;29;87277;-74
2023/06/28 12:27:38;;;;;;;;;;;;;;;;;;;;;
2023/06/28 13:27:41;;;;;;;;;;;30.70;49.00;;;;;;4920511;23;88650;-82
2023/06/28 13:30:07;;;;;;;11.30;5.47;;;30.90;50.00;;;;;;4854114;28;88744;-85
2023/06/28 13:32:33;;;;;;;16.85;6.05;;;31.20;49.60;;;;;;4860942;28;91354;-83
2023/06/28 13:34:58;;;;;;;9.93;5.97;;;31.20;47.20;;;;;;4862602;28;89761;-82
2023/06/28 13:37:24;;;;;;;9.93;5.93;;;31.30;49.60;;;;;;4866613;28;88043;-82
2023/06/28 13:39:50;;;;;;;12.52;5.85;;;31.60;49.70;;;;;;4860664;28;89751;-83
2023/06/28 13:42:16;;;;;;;14.20;8.57;;;31.90;48.70;;;;;;4827883;28;90884;-82
2023/06/28 13:44:46;;;;;;;16.23;8.93;;;31.90;47.00;;;;;;4849876;28;89216;-83
2023/06/28 20:51:05;;;;;;;18.53;11.53;;;22.50;79.20;;;;;;4875926;28;87795;-78